sensor_id;sensor_type;location;lat;lon;timestamp;P1;durP1;ratioP1;P2;durP2;ratioP2
27275;SDS011;14772;47.398;8.080;2022-10-31T00:02:27;20.00;;;7.23;;
27275;SDS011;14772;47.398;8.080;2022-10-31T00:07:25;21.37;;;8.63;;
27275;SDS011;14772;47.398;8.080;2022-10-31T00:12:22;19.70;;;8.30;;
27275;SDS011;14772;47.398;8.080;2022-10-31T00:17:20;19.77;;;8.53;;
27275;SDS011;14772;47.398;8.080;2022-10-31T00:22:18;17.30;;;7.83;;
27275;SDS011;14772;47.398;8.080;2022-10-31T00:27:16;21.43;;;7.83;;
27275;SDS011;14772;47.398;8.080;2022-10-31T00:32:14;18.67;;;7.33;;
27275;SDS011;14772;47.398;8.080;2022-10-31T00:37:12;18.77;;;7.20;;
27275;SDS011;14772;47.398;8.080;2022-10-31T00:42:10;18.83;;;7.33;;
27275;SDS011;14772;47.398;8.080;2022-10-31T00:47:08;20.43;;;7.80;;
27275;SDS011;14772;47.398;8.080;2022-10-31T00:52:06;20.57;;;7.93;;
27275;SDS011;14772;47.398;8.080;2022-10-31T00:57:03;15.93;;;6.97;;
27275;SDS011;14772;47.398;8.080;2022-10-31T01:02:01;18.53;;;7.97;;
27275;SDS011;14772;47.398;8.080;2022-10-31T01:06:59;20.30;;;7.97;;
27275;SDS011;14772;47.398;8.080;2022-10-31T01:11:58;21.27;;;8.60;;
27275;SDS011;14772;47.398;8.080;2022-10-31T01:16:55;22.90;;;8.53;;
27275;SDS011;14772;47.398;8.080;2022-10-31T01:21:54;27.80;;;8.67;;
27275;SDS011;14772;47.398;8.080;2022-10-31T01:26:52;22.23;;;8.83;;
27275;SDS011;14772;47.398;8.080;2022-10-31T01:31:50;21.80;;;8.67;;
27275;SDS011;14772;47.398;8.080;2022-10-31T01:36:48;21.23;;;9.07;;
27275;SDS011;14772;47.398;8.080;2022-10-31T01:41:47;25.00;;;9.63;;
27275;SDS011;14772;47.398;8.080;2022-10-31T01:46:46;20.60;;;8.90;;
27275;SDS011;14772;47.398;8.080;2022-10-31T01:51:48;20.27;;;9.67;;
27275;SDS011;14772;47.398;8.080;2022-10-31T01:56:49;27.27;;;10.50;;
27275;SDS011;14772;47.398;8.080;2022-10-31T02:01:50;23.57;;;10.27;;
27275;SDS011;14772;47.398;8.080;2022-10-31T02:06:49;21.60;;;9.70;;
27275;SDS011;14772;47.398;8.080;2022-10-31T02:11:50;20.77;;;9.83;;
27275;SDS011;14772;47.398;8.080;2022-10-31T02:16:49;20.97;;;9.03;;
27275;SDS011;14772;47.398;8.080;2022-10-31T02:21:47;18.93;;;8.80;;
27275;SDS011;14772;47.398;8.080;2022-10-31T02:26:57;17.40;;;8.40;;
27275;SDS011;14772;47.398;8.080;2022-10-31T02:31:59;17.53;;;8.27;;
27275;SDS011;14772;47.398;8.080;2022-10-31T02:37:01;18.47;;;9.03;;
27275;SDS011;14772;47.398;8.080;2022-10-31T02:42:04;20.63;;;9.03;;
27275;SDS011;14772;47.398;8.080;2022-10-31T02:47:06;17.67;;;8.30;;
27275;SDS011;14772;47.398;8.080;2022-10-31T02:52:14;21.50;;;8.20;;
27275;SDS011;14772;47.398;8.080;2022-10-31T02:57:15;17.60;;;7.80;;
27275;SDS011;14772;47.398;8.080;2022-10-31T03:02:22;16.97;;;8.30;;
27275;SDS011;14772;47.398;8.080;2022-10-31T03:07:34;16.67;;;7.80;;
27275;SDS011;14772;47.398;8.080;2022-10-31T03:12:37;15.33;;;7.83;;
27275;SDS011;14772;47.398;8.080;2022-10-31T03:17:38;17.77;;;7.20;;
27275;SDS011;14772;47.398;8.080;2022-10-31T03:22:39;17.37;;;8.20;;
27275;SDS011;14772;47.398;8.080;2022-10-31T03:27:39;16.00;;;7.93;;
27275;SDS011;14772;47.398;8.080;2022-10-31T03:32:43;18.00;;;8.40;;
27275;SDS011;14772;47.398;8.080;2022-10-31T03:37:45;20.57;;;8.00;;
27275;SDS011;14772;47.398;8.080;2022-10-31T03:42:52;15.90;;;7.23;;
27275;SDS011;14772;47.398;8.080;2022-10-31T03:47:55;18.87;;;7.40;;
27275;SDS011;14772;47.398;8.080;2022-10-31T03:52:54;18.77;;;7.47;;
27275;SDS011;14772;47.398;8.080;2022-10-31T03:57:56;18.43;;;7.67;;
27275;SDS011;14772;47.398;8.080;2022-10-31T04:02:59;16.20;;;7.30;;
27275;SDS011;14772;47.398;8.080;2022-10-31T04:08:11;14.63;;;7.03;;
27275;SDS011;14772;47.398;8.080;2022-10-31T04:13:14;13.37;;;6.27;;
27275;SDS011;14772;47.398;8.080;2022-10-31T04:18:26;13.90;;;6.97;;
27275;SDS011;14772;47.398;8.080;2022-10-31T04:23:29;13.77;;;6.57;;
27275;SDS011;14772;47.398;8.080;2022-10-31T04:28:37;15.30;;;6.97;;
27275;SDS011;14772;47.398;8.080;2022-10-31T04:33:35;16.07;;;6.40;;
27275;SDS011;14772;47.398;8.080;2022-10-31T04:38:33;13.97;;;6.53;;
27275;SDS011;14772;47.398;8.080;2022-10-31T04:43:32;18.23;;;7.77;;
27275;SDS011;14772;47.398;8.080;2022-10-31T04:48:30;15.90;;;7.30;;
27275;SDS011;14772;47.398;8.080;2022-10-31T04:53:29;18.20;;;9.10;;
27275;SDS011;14772;47.398;8.080;2022-10-31T04:58:27;15.53;;;7.43;;
27275;SDS011;14772;47.398;8.080;2022-10-31T05:03:26;16.00;;;6.77;;
27275;SDS011;14772;47.398;8.080;2022-10-31T05:08:27;15.90;;;8.00;;
27275;SDS011;14772;47.398;8.080;2022-10-31T05:13:26;22.63;;;9.57;;
27275;SDS011;14772;47.398;8.080;2022-10-31T05:18:24;23.00;;;9.97;;
27275;SDS011;14772;47.398;8.080;2022-10-31T05:23:22;20.37;;;9.60;;
27275;SDS011;14772;47.398;8.080;2022-10-31T05:28:20;15.23;;;7.27;;
27275;SDS011;14772;47.398;8.080;2022-10-31T05:33:18;17.80;;;6.43;;
27275;SDS011;14772;47.398;8.080;2022-10-31T05:38:16;13.87;;;6.53;;
27275;SDS011;14772;47.398;8.080;2022-10-31T05:43:14;15.33;;;6.73;;
27275;SDS011;14772;47.398;8.080;2022-10-31T05:48:12;13.03;;;6.30;;
27275;SDS011;14772;47.398;8.080;2022-10-31T05:53:10;17.87;;;7.17;;
27275;SDS011;14772;47.398;8.080;2022-10-31T05:58:08;14.63;;;6.83;;
27275;SDS011;14772;47.398;8.080;2022-10-31T06:03:07;14.37;;;6.70;;
27275;SDS011;14772;47.398;8.080;2022-10-31T06:08:06;13.43;;;6.43;;
27275;SDS011;14772;47.398;8.080;2022-10-31T06:13:04;15.27;;;6.90;;
27275;SDS011;14772;47.398;8.080;2022-10-31T06:18:04;14.70;;;6.50;;
27275;SDS011;14772;47.398;8.080;2022-10-31T06:23:02;15.83;;;6.30;;
27275;SDS011;14772;47.398;8.080;2022-10-31T06:28:00;16.67;;;5.97;;
27275;SDS011;14772;47.398;8.080;2022-10-31T06:33:02;13.03;;;5.80;;
27275;SDS011;14772;47.398;8.080;2022-10-31T06:38:00;13.87;;;5.40;;
27275;SDS011;14772;47.398;8.080;2022-10-31T06:42:59;13.40;;;6.00;;
27275;SDS011;14772;47.398;8.080;2022-10-31T06:48:00;13.50;;;6.07;;
27275;SDS011;14772;47.398;8.080;2022-10-31T06:53:22;13.70;;;5.83;;
27275;SDS011;14772;47.398;8.080;2022-10-31T08:23:11;15.20;;;7.77;;
27275;SDS011;14772;47.398;8.080;2022-10-31T09:04:52;17.63;;;7.80;;
27275;SDS011;14772;47.398;8.080;2022-10-31T11:14:27;16.73;;;8.40;;
27275;SDS011;14772;47.398;8.080;2022-10-31T11:19:26;19.13;;;8.30;;
27275;SDS011;14772;47.398;8.080;2022-10-31T12:05:04;18.03;;;7.47;;
27275;SDS011;14772;47.398;8.080;2022-10-31T12:16:07;18.57;;;7.67;;
27275;SDS011;14772;47.398;8.080;2022-10-31T12:38:50;18.60;;;8.20;;
27275;SDS011;14772;47.398;8.080;2022-10-31T12:44:25;20.40;;;8.97;;
27275;SDS011;14772;47.398;8.080;2022-10-31T13:22:38;19.67;;;7.77;;
27275;SDS011;14772;47.398;8.080;2022-10-31T14:31:29;18.10;;;7.63;;
27275;SDS011;14772;47.398;8.080;2022-10-31T14:36:31;18.47;;;7.60;;
27275;SDS011;14772;47.398;8.080;2022-10-31T14:41:44;19.87;;;7.40;;
27275;SDS011;14772;47.398;8.080;2022-10-31T14:46:49;19.27;;;9.03;;
27275;SDS011;14772;47.398;8.080;2022-10-31T14:51:51;22.43;;;9.47;;
27275;SDS011;14772;47.398;8.080;2022-10-31T14:56:50;17.07;;;9.10;;
27275;SDS011;14772;47.398;8.080;2022-10-31T15:01:54;23.13;;;10.00;;
27275;SDS011;14772;47.398;8.080;2022-10-31T15:06:57;21.07;;;10.40;;
27275;SDS011;14772;47.398;8.080;2022-10-31T15:11:59;23.07;;;11.30;;
27275;SDS011;14772;47.398;8.080;2022-10-31T15:17:01;21.77;;;10.80;;
27275;SDS011;14772;47.398;8.080;2022-10-31T15:22:02;20.20;;;10.50;;
27275;SDS011;14772;47.398;8.080;2022-10-31T15:27:01;23.87;;;12.40;;
27275;SDS011;14772;47.398;8.080;2022-10-31T15:32:12;20.37;;;10.70;;
27275;SDS011;14772;47.398;8.080;2022-10-31T15:37:10;21.67;;;9.77;;
27275;SDS011;14772;47.398;8.080;2022-10-31T15:42:22;20.53;;;10.27;;
27275;SDS011;14772;47.398;8.080;2022-10-31T15:47:22;23.77;;;10.23;;
27275;SDS011;14772;47.398;8.080;2022-10-31T15:52:27;22.07;;;9.87;;
27275;SDS011;14772;47.398;8.080;2022-10-31T15:57:29;20.50;;;9.57;;
27275;SDS011;14772;47.398;8.080;2022-10-31T16:02:53;20.30;;;10.70;;
27275;SDS011;14772;47.398;8.080;2022-10-31T16:49:14;23.20;;;10.67;;
27275;SDS011;14772;47.398;8.080;2022-10-31T16:54:11;24.77;;;12.33;;
27275;SDS011;14772;47.398;8.080;2022-10-31T16:59:10;25.00;;;12.30;;
27275;SDS011;14772;47.398;8.080;2022-10-31T17:04:09;24.27;;;12.17;;
27275;SDS011;14772;47.398;8.080;2022-10-31T17:09:09;24.23;;;12.03;;
27275;SDS011;14772;47.398;8.080;2022-10-31T17:14:07;27.77;;;11.97;;
27275;SDS011;14772;47.398;8.080;2022-10-31T17:19:07;28.57;;;12.53;;
27275;SDS011;14772;47.398;8.080;2022-10-31T17:24:09;23.13;;;13.10;;
27275;SDS011;14772;47.398;8.080;2022-10-31T17:29:08;26.07;;;13.60;;
27275;SDS011;14772;47.398;8.080;2022-10-31T17:34:06;27.27;;;13.23;;
27275;SDS011;14772;47.398;8.080;2022-10-31T17:39:06;23.70;;;12.90;;
27275;SDS011;14772;47.398;8.080;2022-10-31T17:44:04;27.60;;;12.40;;
27275;SDS011;14772;47.398;8.080;2022-10-31T17:49:05;25.37;;;13.10;;
27275;SDS011;14772;47.398;8.080;2022-10-31T17:54:02;25.13;;;13.57;;
27275;SDS011;14772;47.398;8.080;2022-10-31T17:59:01;25.83;;;14.83;;
27275;SDS011;14772;47.398;8.080;2022-10-31T18:03:59;23.00;;;13.10;;
27275;SDS011;14772;47.398;8.080;2022-10-31T18:09:00;28.60;;;15.53;;
27275;SDS011;14772;47.398;8.080;2022-10-31T18:14:16;23.67;;;13.10;;
27275;SDS011;14772;47.398;8.080;2022-10-31T18:19:15;29.17;;;16.60;;
27275;SDS011;14772;47.398;8.080;2022-10-31T18:24:13;24.00;;;13.77;;
27275;SDS011;14772;47.398;8.080;2022-10-31T18:29:11;23.13;;;11.83;;
27275;SDS011;14772;47.398;8.080;2022-10-31T18:34:09;21.67;;;11.43;;
27275;SDS011;14772;47.398;8.080;2022-10-31T18:39:07;25.10;;;13.47;;
27275;SDS011;14772;47.398;8.080;2022-10-31T18:44:05;23.17;;;11.80;;
27275;SDS011;14772;47.398;8.080;2022-10-31T18:49:04;24.93;;;12.80;;
27275;SDS011;14772;47.398;8.080;2022-10-31T18:54:02;21.07;;;12.17;;
27275;SDS011;14772;47.398;8.080;2022-10-31T18:59:00;24.43;;;12.00;;
27275;SDS011;14772;47.398;8.080;2022-10-31T19:04:14;25.33;;;12.20;;
27275;SDS011;14772;47.398;8.080;2022-10-31T19:09:12;25.43;;;13.43;;
27275;SDS011;14772;47.398;8.080;2022-10-31T19:14:09;25.83;;;13.10;;
27275;SDS011;14772;47.398;8.080;2022-10-31T19:19:09;27.10;;;13.73;;
27275;SDS011;14772;47.398;8.080;2022-10-31T19:24:07;25.33;;;13.63;;
27275;SDS011;14772;47.398;8.080;2022-10-31T19:29:05;23.20;;;12.70;;
27275;SDS011;14772;47.398;8.080;2022-10-31T19:34:04;26.67;;;13.23;;
27275;SDS011;14772;47.398;8.080;2022-10-31T19:39:01;27.57;;;14.03;;
27275;SDS011;14772;47.398;8.080;2022-10-31T19:44:14;26.97;;;13.37;;
27275;SDS011;14772;47.398;8.080;2022-10-31T19:49:12;25.50;;;12.37;;
27275;SDS011;14772;47.398;8.080;2022-10-31T19:54:10;24.33;;;12.10;;
27275;SDS011;14772;47.398;8.080;2022-10-31T19:59:07;23.83;;;13.27;;
27275;SDS011;14772;47.398;8.080;2022-10-31T20:04:04;22.37;;;13.20;;
27275;SDS011;14772;47.398;8.080;2022-10-31T20:09:02;26.13;;;13.90;;
27275;SDS011;14772;47.398;8.080;2022-10-31T20:14:01;37.37;;;22.60;;
27275;SDS011;14772;47.398;8.080;2022-10-31T20:18:58;30.23;;;16.97;;
27275;SDS011;14772;47.398;8.080;2022-10-31T20:23:56;29.23;;;16.47;;
27275;SDS011;14772;47.398;8.080;2022-10-31T20:28:55;26.83;;;13.93;;
27275;SDS011;14772;47.398;8.080;2022-10-31T20:33:53;25.73;;;12.47;;
27275;SDS011;14772;47.398;8.080;2022-10-31T20:38:53;27.57;;;13.47;;
27275;SDS011;14772;47.398;8.080;2022-10-31T20:43:50;26.27;;;13.93;;
27275;SDS011;14772;47.398;8.080;2022-10-31T20:48:48;27.43;;;13.73;;
27275;SDS011;14772;47.398;8.080;2022-10-31T20:53:46;26.07;;;13.77;;
27275;SDS011;14772;47.398;8.080;2022-10-31T20:58:53;27.43;;;13.93;;
27275;SDS011;14772;47.398;8.080;2022-10-31T21:03:55;23.27;;;13.80;;
27275;SDS011;14772;47.398;8.080;2022-10-31T21:08:53;25.33;;;14.17;;
27275;SDS011;14772;47.398;8.080;2022-10-31T21:13:51;28.60;;;13.77;;
27275;SDS011;14772;47.398;8.080;2022-10-31T21:18:50;25.17;;;13.83;;
27275;SDS011;14772;47.398;8.080;2022-10-31T21:23:51;23.80;;;13.17;;
27275;SDS011;14772;47.398;8.080;2022-10-31T21:28:51;24.60;;;14.13;;
27275;SDS011;14772;47.398;8.080;2022-10-31T21:33:50;24.97;;;13.67;;
27275;SDS011;14772;47.398;8.080;2022-10-31T21:38:49;27.97;;;14.10;;
27275;SDS011;14772;47.398;8.080;2022-10-31T21:43:48;24.60;;;13.50;;
27275;SDS011;14772;47.398;8.080;2022-10-31T21:48:46;23.47;;;11.90;;
27275;SDS011;14772;47.398;8.080;2022-10-31T21:53:45;26.60;;;12.63;;
27275;SDS011;14772;47.398;8.080;2022-10-31T21:58:43;23.90;;;13.27;;
27275;SDS011;14772;47.398;8.080;2022-10-31T22:03:40;26.77;;;12.77;;
27275;SDS011;14772;47.398;8.080;2022-10-31T22:08:38;23.50;;;12.17;;
27275;SDS011;14772;47.398;8.080;2022-10-31T22:13:36;22.13;;;11.93;;
27275;SDS011;14772;47.398;8.080;2022-10-31T22:23:56;24.20;;;13.97;;
27275;SDS011;14772;47.398;8.080;2022-10-31T22:28:55;24.37;;;15.20;;
27275;SDS011;14772;47.398;8.080;2022-10-31T22:33:53;25.70;;;14.70;;
27275;SDS011;14772;47.398;8.080;2022-10-31T22:38:52;28.03;;;12.77;;
27275;SDS011;14772;47.398;8.080;2022-10-31T22:43:51;24.93;;;12.70;;
27275;SDS011;14772;47.398;8.080;2022-10-31T22:48:49;20.80;;;12.03;;
27275;SDS011;14772;47.398;8.080;2022-10-31T22:53:49;23.43;;;12.23;;
27275;SDS011;14772;47.398;8.080;2022-10-31T22:58:47;25.20;;;12.63;;
27275;SDS011;14772;47.398;8.080;2022-10-31T23:03:45;23.47;;;12.03;;
27275;SDS011;14772;47.398;8.080;2022-10-31T23:08:43;21.20;;;11.53;;
27275;SDS011;14772;47.398;8.080;2022-10-31T23:13:41;23.73;;;12.60;;
27275;SDS011;14772;47.398;8.080;2022-10-31T23:18:40;21.93;;;12.47;;
27275;SDS011;14772;47.398;8.080;2022-10-31T23:23:38;21.30;;;11.80;;
27275;SDS011;14772;47.398;8.080;2022-10-31T23:28:36;25.03;;;12.90;;
27275;SDS011;14772;47.398;8.080;2022-10-31T23:33:34;22.73;;;12.60;;
27275;SDS011;14772;47.398;8.080;2022-10-31T23:38:32;23.87;;;12.50;;
27275;SDS011;14772;47.398;8.080;2022-10-31T23:43:30;24.17;;;12.20;;
27275;SDS011;14772;47.398;8.080;2022-10-31T23:48:27;22.33;;;12.30;;
27275;SDS011;14772;47.398;8.080;2022-10-31T23:53:25;24.23;;;12.80;;
27275;SDS011;14772;47.398;8.080;2022-10-31T23:58:22;20.30;;;11.37;;
